createdAt,value
2023-04-10T00:00:05.355Z,0.000000
2023-04-10T00:01:00.929Z,0.000000
2023-04-10T00:02:01.163Z,0.000000
2023-04-10T00:03:01.272Z,0.000000
2023-04-10T00:04:01.615Z,0.000000
2023-04-10T00:05:03.455Z,0.000000
2023-04-10T00:06:01.082Z,0.000000
2023-04-10T00:07:00.972Z,0.000000
2023-04-10T00:08:01.150Z,0.000000
2023-04-10T00:09:01.004Z,0.000000
2023-04-10T00:10:04.161Z,0.000000
2023-04-10T00:11:00.985Z,0.000000
2023-04-10T00:12:01.099Z,0.000000
2023-04-10T00:13:01.040Z,0.000000
2023-04-10T00:14:01.152Z,0.000000
2023-04-10T00:15:04.013Z,0.000000
2023-04-10T00:16:01.226Z,0.000000
2023-04-10T00:17:01.220Z,0.000000
2023-04-10T00:18:01.258Z,0.000000
2023-04-10T00:29:59.706Z,0.000000
2023-04-10T00:30:03.873Z,0.000000
2023-04-10T00:31:01.150Z,0.000000
2023-04-10T00:32:02.447Z,0.000000
2023-04-10T00:33:01.197Z,0.000000
2023-04-10T00:34:01.210Z,0.000000
2023-04-10T00:35:03.944Z,0.000000
2023-04-10T00:36:01.293Z,0.000000
2023-04-10T00:37:01.140Z,0.000000
2023-04-10T00:38:01.217Z,0.000000
2023-04-10T00:39:01.165Z,0.000000
2023-04-10T00:40:04.417Z,0.000000
2023-04-10T00:41:01.175Z,0.000000
2023-04-10T00:42:01.256Z,0.000000
2023-04-10T00:43:01.189Z,0.000000
2023-04-10T00:44:01.266Z,0.000000
2023-04-10T00:45:03.295Z,0.000000
2023-04-10T00:46:00.355Z,0.000000
2023-04-10T00:47:00.246Z,0.000000
2023-04-10T00:48:00.343Z,0.000000
2023-04-10T00:49:00.206Z,0.000000
2023-04-10T00:50:03.313Z,0.000000
2023-04-10T00:51:00.234Z,0.000000
2023-04-10T00:52:00.346Z,0.000000
2023-04-10T00:53:00.240Z,0.000000
2023-04-10T00:54:00.342Z,0.000000
2023-04-10T00:55:02.788Z,0.000000
2023-04-10T00:56:00.302Z,0.000000
2023-04-10T00:57:00.265Z,0.000000
2023-04-10T00:58:00.347Z,0.000000
2023-04-10T00:59:00.266Z,0.000000
2023-04-10T01:00:03.542Z,0.000000
2023-04-10T01:01:00.289Z,0.000000
2023-04-10T01:02:00.546Z,0.000000
2023-04-10T01:03:00.723Z,0.000000
2023-04-10T01:04:00.639Z,0.000000
2023-04-10T01:05:02.880Z,0.000000
2023-04-10T01:06:00.392Z,0.000000
2023-04-10T01:07:00.296Z,0.000000
2023-04-10T01:08:00.379Z,0.000000
2023-04-10T01:09:00.313Z,0.000000
2023-04-10T01:10:04.747Z,0.000000
2023-04-10T01:11:00.323Z,0.000000
2023-04-10T01:12:00.422Z,0.000000
2023-04-10T01:13:00.321Z,0.000000
2023-04-10T01:14:00.404Z,0.000000
2023-04-10T01:15:02.794Z,0.000000
2023-04-10T01:16:00.456Z,0.000000
2023-04-10T01:17:00.399Z,0.000000
2023-04-10T01:18:00.498Z,0.000000
2023-04-10T01:19:00.398Z,0.000000
2023-04-10T01:20:19.219Z,0.000000
2023-04-10T01:21:00.384Z,0.000000
2023-04-10T01:22:00.470Z,0.000000
2023-04-10T01:23:00.385Z,0.000000
2023-04-10T01:24:00.474Z,0.000000
2023-04-10T01:25:03.596Z,0.000000
2023-04-10T01:26:00.489Z,0.000000
2023-04-10T01:27:00.418Z,0.000000
2023-04-10T01:32:57.189Z,0.000000
2023-04-10T01:33:00.498Z,0.000000
2023-04-10T01:34:00.555Z,0.000000
2023-04-10T01:35:02.996Z,0.000000
2023-04-10T01:36:00.613Z,0.000000
2023-04-10T01:37:00.449Z,0.000000
2023-04-10T01:38:00.552Z,0.000000
2023-04-10T01:39:00.477Z,0.000000
2023-04-10T01:40:04.032Z,0.000000
2023-04-10T01:41:00.487Z,0.000000
2023-04-10T01:42:00.577Z,0.000000
2023-04-10T01:43:00.494Z,0.000000
2023-04-10T01:44:00.592Z,0.000000
2023-04-10T01:45:03.052Z,0.000000
2023-04-10T01:46:00.655Z,0.000000
2023-04-10T01:47:00.524Z,0.000000
2023-04-10T01:48:00.626Z,0.000000
2023-04-10T01:49:00.531Z,0.000000
2023-04-10T01:52:17.609Z,0.000000
2023-04-10T01:53:00.570Z,0.000000
2023-04-10T01:54:00.650Z,0.000000
2023-04-10T01:55:03.153Z,0.000000
2023-04-10T01:56:00.673Z,0.000000
2023-04-10T01:57:00.606Z,0.000000
2023-04-10T01:58:00.697Z,0.000000
2023-04-10T01:59:00.593Z,0.000000
2023-04-10T02:00:10.989Z,0.000000
2023-04-10T02:01:00.616Z,0.000000
2023-04-10T02:02:01.830Z,0.000000
2023-04-10T02:03:00.776Z,0.000000
2023-04-10T02:04:00.836Z,0.000000
2023-04-10T02:05:03.294Z,0.000000
2023-04-10T02:08:18.034Z,0.000000
2023-04-10T02:09:00.654Z,0.000000
2023-04-10T02:10:04.155Z,0.000000
2023-04-10T02:11:00.670Z,0.000000
2023-04-10T02:12:07.998Z,0.000000
2023-04-10T02:13:00.696Z,0.000000
2023-04-10T02:14:33.225Z,0.000000
2023-04-10T02:15:03.288Z,0.000000
2023-04-10T02:17:00.702Z,0.000000
2023-04-10T02:18:00.838Z,0.000000
2023-04-10T02:19:00.699Z,0.000000
2023-04-10T02:20:35.859Z,0.000000
2023-04-10T02:21:00.723Z,0.000000
2023-04-10T02:22:00.805Z,0.000000
2023-04-10T02:23:00.716Z,0.000000
2023-04-10T02:24:00.833Z,0.000000
2023-04-10T02:25:03.168Z,0.000000
2023-04-10T02:26:00.801Z,0.000000
2023-04-10T02:27:00.738Z,0.000000
2023-04-10T02:28:00.829Z,0.000000
2023-04-10T02:29:00.746Z,0.000000
2023-04-10T02:30:03.933Z,0.000000
2023-04-10T02:31:00.782Z,0.000000
2023-04-10T02:32:00.864Z,0.000000
2023-04-10T02:33:00.849Z,0.000000
2023-04-10T02:34:00.893Z,0.000000
2023-04-10T02:35:04.419Z,0.000000
2023-04-10T02:36:00.958Z,0.000000
2023-04-10T02:37:00.809Z,0.000000
2023-04-10T02:38:00.894Z,0.000000
2023-04-10T02:39:00.828Z,0.000000
2023-04-10T02:40:03.730Z,0.000000
2023-04-10T02:41:00.833Z,0.000000
2023-04-10T02:42:00.924Z,0.000000
2023-04-10T02:43:00.844Z,0.000000
2023-04-10T02:44:00.913Z,0.000000
2023-04-10T02:45:03.799Z,0.000000
2023-04-10T02:46:00.940Z,0.000000
2023-04-10T02:47:00.929Z,0.000000
2023-04-10T02:48:00.972Z,0.000000
2023-04-10T02:49:00.857Z,0.000000
2023-04-10T02:52:16.761Z,0.000000
2023-04-10T02:53:00.881Z,0.000000
2023-04-10T02:54:01.165Z,0.000000
2023-04-10T02:55:04.955Z,0.000000
2023-04-10T02:56:00.999Z,0.000000
2023-04-10T02:57:00.903Z,0.000000
2023-04-10T02:58:01.024Z,0.000000
2023-04-10T02:59:00.904Z,0.000000
2023-04-10T03:00:04.018Z,0.000000
2023-04-10T03:01:00.944Z,0.000000
2023-04-10T03:02:02.187Z,0.000000
2023-04-10T03:03:01.099Z,0.000000
2023-04-10T03:04:01.109Z,0.000000
2023-04-10T03:05:03.897Z,0.000000
2023-04-10T03:06:01.048Z,0.000000
2023-04-10T03:07:00.973Z,0.000000
2023-04-10T03:08:01.036Z,0.000000
2023-04-10T03:09:00.981Z,0.000000
2023-04-10T03:10:04.103Z,0.000000
2023-04-10T03:11:01.020Z,0.000000
2023-04-10T03:12:01.211Z,0.000000
2023-04-10T03:13:01.019Z,0.000000
2023-04-10T03:14:01.137Z,0.000000
2023-04-10T03:15:03.529Z,0.000000
2023-04-10T03:16:01.293Z,0.000000
2023-04-10T03:17:01.020Z,0.000000
2023-04-10T03:18:01.326Z,0.000000
2023-04-10T03:19:01.030Z,0.000000
2023-04-10T03:20:03.992Z,0.000000
2023-04-10T03:21:01.055Z,0.000000
2023-04-10T03:22:01.608Z,0.000000
2023-04-10T03:23:01.051Z,0.000000
2023-04-10T03:24:01.574Z,0.000000
2023-04-10T03:25:03.597Z,0.000000
2023-04-10T03:26:01.653Z,0.000000
2023-04-10T03:27:01.075Z,0.000000
2023-04-10T03:28:01.662Z,0.000000
2023-04-10T03:29:01.072Z,0.000000
2023-04-10T03:30:05.299Z,0.000000
2023-04-10T03:31:01.086Z,0.000000
2023-04-10T03:32:03.244Z,0.000000
2023-04-10T03:33:01.120Z,0.000000
2023-04-10T03:34:02.019Z,0.000000
2023-04-10T03:35:03.548Z,0.000000
2023-04-10T03:36:02.066Z,0.000000
2023-04-10T03:37:01.113Z,0.000000
2023-04-10T03:38:02.074Z,0.000000
2023-04-10T03:39:01.137Z,0.000000
2023-04-10T03:40:04.490Z,0.000000
2023-04-10T03:41:01.137Z,0.000000
2023-04-10T03:42:02.497Z,0.000000
2023-04-10T03:43:01.130Z,0.000000
2023-04-10T03:44:02.317Z,0.000000
2023-04-10T03:45:03.885Z,0.000000
2023-04-10T03:46:03.170Z,0.000000
2023-04-10T03:47:01.182Z,0.000000
2023-04-10T03:48:02.582Z,0.000000
2023-04-10T03:49:01.181Z,0.000000
2023-04-10T03:50:36.144Z,0.000000
2023-04-10T03:51:00.199Z,0.000000
2023-04-10T03:52:00.288Z,0.000000
2023-04-10T03:53:00.191Z,0.000000
2023-04-10T03:54:00.282Z,0.000000
2023-04-10T03:55:02.713Z,0.000000
2023-04-10T03:56:00.269Z,0.000000
2023-04-10T03:57:00.217Z,0.000000
2023-04-10T03:58:00.342Z,0.000000
2023-04-10T03:59:00.205Z,0.000000
2023-04-10T04:00:04.697Z,0.000000
2023-04-10T04:01:00.229Z,0.000000
2023-04-10T04:02:00.365Z,0.000000
2023-04-10T04:03:00.357Z,0.000000
2023-04-10T04:04:00.954Z,0.000000
2023-04-10T04:05:02.784Z,0.000000
2023-04-10T04:06:00.344Z,0.000000
2023-04-10T04:07:00.254Z,0.000000
2023-04-10T04:08:00.330Z,0.000000
2023-04-10T04:09:00.276Z,0.000000
2023-04-10T04:10:03.550Z,0.000000
2023-04-10T04:11:00.264Z,0.000000
2023-04-10T04:12:00.378Z,0.000000
2023-04-10T04:13:00.271Z,0.000000
2023-04-10T04:14:00.523Z,0.000000
2023-04-10T04:15:02.831Z,0.000000
2023-04-10T04:16:00.420Z,0.000000
2023-04-10T04:17:00.379Z,0.000000
2023-04-10T04:18:01.488Z,0.000000
2023-04-10T04:19:00.302Z,0.000000
2023-04-10T04:20:03.780Z,0.000000
2023-04-10T04:21:00.329Z,0.000000
2023-04-10T04:22:00.599Z,0.000000
2023-04-10T04:23:00.332Z,0.000000
2023-04-10T04:24:00.494Z,0.000000
2023-04-10T04:25:03.663Z,0.000000
2023-04-10T04:26:00.418Z,2.000000
2023-04-10T04:27:00.364Z,2.000000
2023-04-10T04:28:00.466Z,2.000000
2023-04-10T04:29:00.375Z,4.100000
2023-04-10T04:30:04.117Z,4.100000
2023-04-10T04:31:00.381Z,12.200000
2023-04-10T04:32:00.529Z,12.200000
2023-04-10T04:33:00.424Z,20.300000
2023-04-10T04:34:02.639Z,20.300000
2023-04-10T04:35:03.120Z,20.300000
2023-04-10T04:36:00.535Z,20.300000
2023-04-10T04:37:00.418Z,20.300000
2023-04-10T04:38:00.513Z,32.500000
2023-04-10T04:39:00.424Z,32.500000
2023-04-10T04:40:04.517Z,32.500000
2023-04-10T04:41:00.435Z,32.500000
2023-04-10T04:42:00.540Z,32.500000
2023-04-10T04:43:00.442Z,69.200000
2023-04-10T04:44:00.525Z,69.200000
2023-04-10T04:45:02.958Z,81.400000
2023-04-10T04:46:01.693Z,81.400000
2023-04-10T04:47:00.455Z,81.400000
2023-04-10T04:48:00.590Z,113.900000
2023-04-10T04:49:00.459Z,113.900000
2023-04-10T04:51:09.154Z,146.400000
2023-04-10T04:52:01.618Z,146.400000
2023-04-10T04:53:00.494Z,146.400000
2023-04-10T04:54:01.610Z,181.000000
2023-04-10T04:55:03.251Z,181.000000
2023-04-10T04:56:01.622Z,217.600000
2023-04-10T04:57:00.541Z,217.600000
2023-04-10T04:58:00.636Z,256.300000
2023-04-10T04:59:00.515Z,256.300000
2023-04-10T05:00:03.836Z,256.300000
2023-04-10T05:01:00.528Z,319.300000
2023-04-10T05:02:00.761Z,319.300000
2023-04-10T05:03:00.733Z,382.400000
2023-04-10T05:04:01.687Z,382.400000
2023-04-10T05:05:03.126Z,382.400000
2023-04-10T05:06:00.639Z,437.300000
2023-04-10T05:07:00.553Z,437.300000
2023-04-10T05:08:00.681Z,506.500000
2023-04-10T05:09:00.641Z,506.500000
2023-04-10T05:10:04.566Z,506.500000
2023-04-10T05:11:00.575Z,608.200000
2023-04-10T05:12:00.682Z,608.200000
2023-04-10T05:13:00.576Z,783.100000
2023-04-10T05:14:01.720Z,783.100000
2023-04-10T05:15:03.185Z,783.100000
2023-04-10T05:16:00.723Z,907.200000
2023-04-10T05:17:02.923Z,907.200000
2023-04-10T05:18:01.733Z,888.900000
2023-04-10T05:19:00.651Z,888.900000
2023-04-10T05:20:08.573Z,888.900000
2023-04-10T05:21:00.626Z,986.500000
2023-04-10T05:22:01.616Z,986.500000
2023-04-10T05:23:00.627Z,986.500000
2023-04-10T05:24:00.726Z,1102.400000
2023-04-10T05:25:03.200Z,1102.400000
2023-04-10T05:26:03.951Z,1352.600000
2023-04-10T05:27:00.660Z,1352.600000
2023-04-10T05:28:00.732Z,1352.600000
2023-04-10T05:29:00.651Z,1759.000000
2023-04-10T05:30:04.412Z,1759.000000
2023-04-10T05:31:00.752Z,2028.000000
2023-04-10T05:32:04.037Z,2028.000000
2023-04-10T05:33:00.733Z,2028.000000
2023-04-10T05:34:00.775Z,2231.000000
2023-04-10T05:35:03.231Z,2231.000000
2023-04-10T05:36:00.838Z,1977.000000
2023-04-10T05:37:00.708Z,1977.000000
2023-04-10T05:38:00.860Z,1977.000000
2023-04-10T05:39:00.729Z,1977.000000
2023-04-10T05:40:06.178Z,1977.000000
2023-04-10T05:41:00.722Z,3409.000000
2023-04-10T05:42:00.835Z,3409.000000
2023-04-10T05:43:00.735Z,3409.000000
2023-04-10T05:44:00.855Z,3809.000000
2023-04-10T05:45:03.375Z,3809.000000
2023-04-10T05:46:01.780Z,3809.000000
2023-04-10T05:47:00.756Z,3851.000000
2023-04-10T05:48:00.982Z,3851.000000
2023-04-10T05:49:00.760Z,4331.000000
2023-04-10T05:51:08.890Z,4819.000000
2023-04-10T05:52:00.856Z,4819.000000
2023-04-10T05:53:00.776Z,4819.000000
2023-04-10T05:54:00.873Z,4819.000000
2023-04-10T05:55:03.341Z,4819.000000
2023-04-10T05:56:00.872Z,4819.000000
2023-04-10T05:57:00.828Z,5114.000000
2023-04-10T05:58:00.863Z,5114.000000
2023-04-10T05:59:00.818Z,5174.000000
2023-04-10T06:00:04.409Z,5174.000000
2023-04-10T06:01:00.901Z,5174.000000
2023-04-10T06:02:01.767Z,5407.000000
2023-04-10T06:03:00.950Z,5407.000000
2023-04-10T06:04:01.084Z,5547.000000
2023-04-10T06:05:03.357Z,5547.000000
2023-04-10T06:06:00.988Z,5547.000000
2023-04-10T06:07:00.862Z,5383.000000
2023-04-10T06:08:00.952Z,5383.000000
2023-04-10T06:09:00.989Z,5767.000000
2023-04-10T06:10:04.331Z,5767.000000
2023-04-10T06:11:00.912Z,5767.000000
2023-04-10T06:12:01.008Z,5886.000000
2023-04-10T06:13:00.954Z,5886.000000
2023-04-10T06:14:01.010Z,5733.000000
2023-04-10T06:15:04.417Z,5733.000000
2023-04-10T06:16:01.721Z,5988.000000
2023-04-10T06:17:00.902Z,5988.000000
2023-04-10T06:18:01.033Z,5988.000000
2023-04-10T06:19:01.016Z,5338.000000
2023-04-10T06:21:08.681Z,5338.000000
2023-04-10T06:22:01.140Z,4907.000000
2023-04-10T06:23:01.027Z,4907.000000
2023-04-10T06:24:01.010Z,4804.000000
2023-04-10T06:25:05.009Z,4804.000000
2023-04-10T06:26:01.052Z,4804.000000
2023-04-10T06:27:01.043Z,4804.000000
2023-04-10T06:28:01.019Z,4804.000000
2023-04-10T06:29:00.998Z,4804.000000
2023-04-10T06:30:04.476Z,4804.000000
2023-04-10T06:31:01.023Z,4804.000000
2023-04-10T06:32:01.843Z,5533.000000
2023-04-10T06:33:01.049Z,5533.000000
2023-04-10T06:34:03.141Z,5577.000000
2023-04-10T06:35:03.549Z,5577.000000
2023-04-10T06:36:01.246Z,5577.000000
2023-04-10T06:37:00.987Z,5314.000000
2023-04-10T06:38:01.315Z,5314.000000
2023-04-10T06:39:01.058Z,5314.000000
2023-04-10T06:40:04.564Z,5912.000000
2023-04-10T06:41:01.008Z,5912.000000
2023-04-10T06:42:01.284Z,5807.000000
2023-04-10T06:43:01.024Z,5807.000000
2023-04-10T06:44:03.462Z,5807.000000
2023-04-10T06:45:03.616Z,5738.000000
2023-04-10T06:46:01.659Z,5738.000000
2023-04-10T06:47:01.103Z,5503.000000
2023-04-10T06:48:01.264Z,5503.000000
2023-04-10T06:49:01.050Z,5931.000000
2023-04-10T06:50:04.656Z,5931.000000
2023-04-10T06:51:01.090Z,5931.000000
2023-04-10T06:52:01.148Z,6170.000000
2023-04-10T06:53:01.091Z,6170.000000
2023-04-10T06:54:01.169Z,6170.000000
2023-04-10T06:55:03.650Z,6130.000000
2023-04-10T06:56:04.891Z,6130.000000
2023-04-10T06:57:01.109Z,6123.000000
2023-04-10T06:58:01.229Z,6123.000000
2023-04-10T06:59:01.113Z,6123.000000
2023-04-10T07:00:04.692Z,5967.000000
2023-04-10T07:01:01.229Z,5967.000000
2023-04-10T07:02:05.060Z,5967.000000
2023-04-10T07:03:01.164Z,5982.000000
2023-04-10T07:04:04.813Z,5982.000000
2023-04-10T07:05:03.833Z,6143.000000
2023-04-10T07:06:01.263Z,6143.000000
2023-04-10T07:07:01.163Z,6143.000000
2023-04-10T07:08:01.664Z,6434.000000
2023-04-10T07:09:01.176Z,6434.000000
2023-04-10T07:10:05.266Z,6459.000000
2023-04-10T07:11:01.314Z,6459.000000
2023-04-10T07:12:01.636Z,6488.000000
2023-04-10T07:13:01.173Z,6488.000000
2023-04-10T07:14:04.817Z,6488.000000
2023-04-10T07:15:03.713Z,6484.000000
2023-04-10T07:16:01.724Z,6484.000000
2023-04-10T07:17:00.185Z,6484.000000
2023-04-10T07:18:00.332Z,6506.000000
2023-04-10T07:19:00.192Z,6506.000000
2023-04-10T07:20:03.392Z,6387.000000
2023-04-10T07:21:00.235Z,6387.000000
2023-04-10T07:22:03.418Z,6474.000000
2023-04-10T07:23:00.242Z,6474.000000
2023-04-10T07:24:01.640Z,6474.000000
2023-04-10T07:25:02.838Z,6547.000000
2023-04-10T07:26:00.405Z,6547.000000
2023-04-10T07:27:00.268Z,6547.000000
2023-04-10T07:28:00.328Z,6377.000000
2023-04-10T07:29:00.273Z,6377.000000
2023-04-10T07:30:03.540Z,6377.000000
2023-04-10T07:31:00.274Z,6372.000000
2023-04-10T07:32:01.880Z,6372.000000
2023-04-10T07:33:00.432Z,6368.000000
2023-04-10T07:34:00.405Z,6368.000000
2023-04-10T07:35:02.752Z,6433.000000
2023-04-10T07:36:01.842Z,6433.000000
2023-04-10T07:37:00.308Z,6433.000000
2023-04-10T07:38:00.416Z,6622.000000
2023-04-10T07:39:00.341Z,6622.000000
2023-04-10T07:40:03.319Z,6622.000000
2023-04-10T07:41:00.340Z,6615.000000
2023-04-10T07:42:00.469Z,6615.000000
2023-04-10T07:43:00.351Z,6601.000000
2023-04-10T07:44:01.789Z,6601.000000
2023-04-10T07:45:02.941Z,6532.000000
2023-04-10T07:46:00.498Z,6532.000000
2023-04-10T07:47:00.355Z,6532.000000
2023-04-10T07:48:00.519Z,6575.000000
2023-04-10T07:49:00.347Z,6575.000000
2023-04-10T07:50:05.193Z,6575.000000
2023-04-10T07:51:00.369Z,6465.000000
2023-04-10T07:52:00.451Z,6465.000000
2023-04-10T07:53:00.380Z,6262.000000
2023-04-10T07:54:00.478Z,6262.000000
2023-04-10T07:55:03.336Z,6375.000000
2023-04-10T07:56:00.493Z,6375.000000
2023-04-10T07:57:00.400Z,6375.000000
2023-04-10T07:58:02.011Z,6562.000000
2023-04-10T07:59:00.401Z,6562.000000
2023-04-10T08:00:03.493Z,6184.000000
2023-04-10T08:01:00.434Z,6184.000000
2023-04-10T08:02:01.747Z,6184.000000
2023-04-10T08:03:00.783Z,6339.000000
2023-04-10T08:04:02.904Z,6339.000000
2023-04-10T08:05:04.033Z,6319.000000
2023-04-10T08:06:01.639Z,6319.000000
2023-04-10T08:07:00.465Z,6093.000000
2023-04-10T08:08:00.579Z,6093.000000
2023-04-10T08:09:00.486Z,6093.000000
2023-04-10T08:10:03.294Z,5599.000000
2023-04-10T08:11:00.478Z,5599.000000
2023-04-10T08:12:02.069Z,5599.000000
2023-04-10T08:13:00.511Z,5325.000000
2023-04-10T08:14:01.808Z,5325.000000
2023-04-10T08:15:03.203Z,5144.000000
2023-04-10T08:16:00.604Z,5144.000000
2023-04-10T08:17:00.558Z,5144.000000
2023-04-10T08:18:00.647Z,5511.000000
2023-04-10T08:19:00.525Z,5511.000000
2023-04-10T08:20:05.418Z,5511.000000
2023-04-10T08:21:00.537Z,5568.000000
2023-04-10T08:22:03.768Z,5568.000000
2023-04-10T08:23:12.431Z,5568.000000
2023-04-10T08:24:00.689Z,5785.000000
2023-04-10T08:25:03.178Z,5785.000000
2023-04-10T08:26:00.676Z,5792.000000
2023-04-10T08:27:00.559Z,5792.000000
2023-04-10T08:28:01.628Z,5883.000000
2023-04-10T08:29:00.565Z,5883.000000
2023-04-10T08:30:04.100Z,5831.000000
2023-04-10T08:31:00.663Z,5831.000000
2023-04-10T08:32:01.668Z,5831.000000
2023-04-10T08:33:00.618Z,5676.000000
2023-04-10T08:34:00.786Z,5676.000000
2023-04-10T08:35:03.196Z,5676.000000
2023-04-10T08:36:01.711Z,6055.000000
2023-04-10T08:37:00.593Z,6055.000000
2023-04-10T08:38:12.714Z,6221.000000
2023-04-10T08:39:00.684Z,6221.000000
2023-04-10T08:40:36.640Z,6161.000000
2023-04-10T08:41:00.647Z,6161.000000
2023-04-10T08:42:34.636Z,6161.000000
2023-04-10T08:43:00.670Z,6161.000000
2023-04-10T08:44:02.575Z,6000.000000
2023-04-10T08:45:03.337Z,6000.000000
2023-04-10T08:46:00.846Z,6703.000000
2023-04-10T08:47:00.680Z,6703.000000
2023-04-10T08:48:00.826Z,6703.000000
2023-04-10T08:49:00.699Z,6649.000000
2023-04-10T08:50:03.678Z,6649.000000
2023-04-10T08:51:00.699Z,6594.000000
2023-04-10T08:52:00.785Z,6594.000000
2023-04-10T08:53:00.692Z,6736.000000
2023-04-10T08:54:01.665Z,6736.000000
2023-04-10T08:55:03.379Z,6736.000000
2023-04-10T08:56:00.828Z,6829.000000
2023-04-10T08:57:00.761Z,6829.000000
2023-04-10T08:58:02.166Z,6829.000000
2023-04-10T08:59:00.738Z,6586.000000
2023-04-10T09:00:53.694Z,6363.000000
2023-04-10T09:01:00.788Z,6363.000000
2023-04-10T09:02:01.010Z,6363.000000
2023-04-10T09:03:01.003Z,5985.000000
2023-04-10T09:04:01.388Z,5985.000000
2023-04-10T09:05:03.297Z,5985.000000
2023-04-10T09:06:01.172Z,5910.000000
2023-04-10T09:07:00.791Z,5910.000000
2023-04-10T09:08:04.040Z,5910.000000
2023-04-10T09:10:04.168Z,6085.000000
2023-04-10T09:11:00.823Z,6085.000000
2023-04-10T09:12:02.367Z,6033.000000
2023-04-10T09:13:00.839Z,6033.000000
2023-04-10T09:14:01.794Z,5927.000000
2023-04-10T09:15:03.437Z,5927.000000
2023-04-10T09:16:01.058Z,5899.000000
2023-04-10T09:17:00.851Z,5899.000000
2023-04-10T09:18:01.110Z,5899.000000
2023-04-10T09:19:00.836Z,5905.000000
2023-04-10T09:20:05.225Z,5905.000000
2023-04-10T09:21:00.871Z,5959.000000
2023-04-10T09:22:01.665Z,5959.000000
2023-04-10T09:23:00.877Z,5959.000000
2023-04-10T09:24:00.947Z,5968.000000
2023-04-10T09:25:03.522Z,5968.000000
2023-04-10T09:26:00.975Z,5866.000000
2023-04-10T09:27:00.899Z,5866.000000
2023-04-10T09:28:00.964Z,5866.000000
2023-04-10T09:29:00.913Z,6083.000000
2023-04-10T09:30:03.882Z,6083.000000
2023-04-10T09:31:00.933Z,6128.000000
2023-04-10T09:32:01.851Z,6128.000000
2023-04-10T09:33:02.223Z,6128.000000
2023-04-10T09:34:01.038Z,6053.000000
2023-04-10T09:35:03.509Z,6053.000000
2023-04-10T09:36:02.116Z,6053.000000
2023-04-10T09:37:00.926Z,6053.000000
2023-04-10T09:38:01.066Z,6053.000000
2023-04-10T09:39:00.943Z,6304.000000
2023-04-10T09:40:04.108Z,6304.000000
2023-04-10T09:41:00.952Z,6304.000000
2023-04-10T09:42:01.023Z,6328.000000
2023-04-10T09:43:00.952Z,6328.000000
2023-04-10T09:44:02.101Z,6328.000000
2023-04-10T09:45:03.731Z,6629.000000
2023-04-10T09:46:01.709Z,6629.000000
2023-04-10T09:47:01.052Z,6836.000000
2023-04-10T09:48:01.104Z,6836.000000
2023-04-10T09:49:00.986Z,6636.000000
2023-04-10T09:50:03.963Z,6636.000000
2023-04-10T09:51:01.055Z,6636.000000
2023-04-10T09:52:01.296Z,6163.000000
2023-04-10T09:53:01.008Z,6163.000000
2023-04-10T09:54:01.085Z,6163.000000
2023-04-10T09:55:04.385Z,5834.000000
2023-04-10T09:56:01.150Z,5834.000000
2023-04-10T09:57:01.055Z,5629.000000
2023-04-10T09:58:01.170Z,5629.000000
2023-04-10T09:59:01.045Z,5541.000000
2023-04-10T10:00:04.053Z,5541.000000
2023-04-10T10:01:01.100Z,5541.000000
2023-04-10T10:02:02.280Z,5510.000000
2023-04-10T10:03:01.265Z,5510.000000
2023-04-10T10:04:01.181Z,5510.000000
2023-04-10T10:05:04.054Z,5580.000000
2023-04-10T10:06:01.204Z,5580.000000
2023-04-10T10:07:01.091Z,5580.000000
2023-04-10T10:08:01.183Z,5670.000000
2023-04-10T10:09:01.109Z,5670.000000
2023-04-10T10:10:04.689Z,5831.000000
2023-04-10T10:11:01.111Z,5831.000000
2023-04-10T10:12:01.222Z,5907.000000
2023-04-10T10:13:01.125Z,5907.000000
2023-04-10T10:14:01.670Z,5907.000000
2023-04-10T10:15:03.595Z,5794.000000
2023-04-10T10:16:01.247Z,5794.000000
2023-04-10T10:17:01.154Z,5794.000000
2023-04-10T10:18:01.718Z,5870.000000
2023-04-10T10:19:01.151Z,5870.000000
2023-04-10T10:20:04.204Z,5870.000000
2023-04-10T10:21:01.157Z,5870.000000
2023-04-10T10:22:01.263Z,6117.000000
2023-04-10T10:23:01.163Z,6117.000000
2023-04-10T10:24:01.274Z,6117.000000
2023-04-10T10:25:02.786Z,6202.000000
2023-04-10T10:26:02.300Z,6202.000000
2023-04-10T10:27:00.229Z,6202.000000
2023-04-10T10:28:00.499Z,6189.000000
2023-04-10T10:29:00.226Z,6189.000000
2023-04-10T10:30:11.814Z,6081.000000
2023-04-10T10:31:00.246Z,6081.000000
2023-04-10T10:32:01.875Z,6082.000000
2023-04-10T10:33:00.460Z,6082.000000
2023-04-10T10:34:00.573Z,6082.000000
2023-04-10T10:35:02.743Z,6026.000000
2023-04-10T10:36:01.427Z,6026.000000
2023-04-10T10:37:00.305Z,6026.000000
2023-04-10T10:38:00.618Z,5878.000000
2023-04-10T10:39:00.271Z,5878.000000
2023-04-10T10:40:03.171Z,6027.000000
2023-04-10T10:41:00.274Z,6027.000000
2023-04-10T10:42:00.456Z,6027.000000
2023-04-10T10:43:00.281Z,6027.000000
2023-04-10T10:44:01.525Z,6027.000000
2023-04-10T10:45:02.871Z,5785.000000
2023-04-10T10:46:01.696Z,5785.000000
2023-04-10T10:47:00.311Z,5785.000000
2023-04-10T10:48:00.608Z,5825.000000
2023-04-10T10:49:00.347Z,5825.000000
2023-04-10T10:50:04.063Z,5908.000000
2023-04-10T10:51:00.389Z,5908.000000
2023-04-10T10:52:01.413Z,5908.000000
2023-04-10T10:53:00.349Z,6407.000000
2023-04-10T10:54:00.567Z,6407.000000
2023-04-10T10:55:03.188Z,6564.000000
2023-04-10T10:56:00.798Z,6564.000000
2023-04-10T10:57:00.376Z,6606.000000
2023-04-10T10:58:00.889Z,6606.000000
2023-04-10T10:59:00.364Z,6606.000000
2023-04-10T11:00:04.804Z,6601.000000
2023-04-10T11:01:00.444Z,6601.000000
2023-04-10T11:02:00.881Z,6601.000000
2023-04-10T11:03:00.529Z,6733.000000
2023-04-10T11:04:01.268Z,6733.000000
2023-04-10T11:05:02.938Z,6784.000000
2023-04-10T11:06:01.289Z,6784.000000
2023-04-10T11:07:00.429Z,6787.000000
2023-04-10T11:08:01.138Z,6787.000000
2023-04-10T11:09:00.455Z,6787.000000
2023-04-10T11:10:04.852Z,6924.000000
2023-04-10T11:11:00.428Z,6924.000000
2023-04-10T11:12:01.436Z,6924.000000
2023-04-10T11:13:00.437Z,6840.000000
2023-04-10T11:14:01.685Z,6840.000000
2023-04-10T11:15:03.031Z,6649.000000
2023-04-10T11:16:01.563Z,6649.000000
2023-04-10T11:17:00.622Z,6498.000000
2023-04-10T11:18:01.789Z,6498.000000
2023-04-10T11:19:13.294Z,6498.000000
2023-04-10T11:20:03.564Z,6329.000000
2023-04-10T11:21:00.506Z,6329.000000
2023-04-10T11:22:00.576Z,6329.000000
2023-04-10T11:23:00.491Z,6329.000000
2023-04-10T11:24:00.626Z,6329.000000
2023-04-10T11:25:03.080Z,6329.000000
2023-04-10T11:26:00.602Z,6065.000000
2023-04-10T11:27:00.517Z,6065.000000
2023-04-10T11:28:00.663Z,6154.000000
2023-04-10T11:29:00.508Z,6154.000000
2023-04-10T11:30:03.540Z,6170.000000
2023-04-10T11:31:00.529Z,6170.000000
2023-04-10T11:32:02.133Z,6170.000000
2023-04-10T11:33:00.639Z,6025.000000
2023-04-10T11:34:00.612Z,6025.000000